Time;durP1;ratioP1;P1;durP2;ratioP2;P2;SDS_P1;SDS_P2;PMS_P1;PMS_P2;Temp;Humidity;BMP_temperature;BMP_pressure;BME280_temperature;BME280_humidity;BME280_pressure;Samples;Min_cycle;Max_cycle;Signal;HPM_P1;HPM_P2
2021/08/30 00:00:10;;;;;;;2.40;2.30;;;14.40;99.90;;;;;;1889331;76;21540;-77
2021/08/30 00:02:36;;;;;;;2.40;2.20;;;14.40;99.90;;;;;;1889095;76;21068;-76
2021/08/30 00:05:02;;;;;;;2.25;2.08;;;14.50;99.90;;;;;;1889112;76;21064;-76
2021/08/30 00:07:28;;;;;;;2.10;2.00;;;14.50;99.90;;;;;;1889153;76;21115;-76
2021/08/30 00:09:54;;;;;;;3.90;2.47;;;14.50;99.90;;;;;;1889160;74;21109;-77
2021/08/30 00:12:20;;;;;;;2.33;2.15;;;14.50;99.90;;;;;;1889214;76;21072;-77
2021/08/30 00:14:46;;;;;;;2.40;2.20;;;14.50;99.90;;;;;;1889166;76;21072;-76
2021/08/30 00:17:12;;;;;;;3.05;2.70;;;14.50;99.90;;;;;;1889202;76;21072;-77
2021/08/30 00:19:39;;;;;;;2.72;2.52;;;14.50;99.90;;;;;;1889208;76;21115;-77
2021/08/30 00:22:05;;;;;;;5.05;2.80;;;14.50;99.90;;;;;;1889143;76;21142;-77
2021/08/30 00:24:31;;;;;;;3.20;2.90;;;14.60;99.90;;;;;;1889126;76;21068;-77
2021/08/30 00:26:57;;;;;;;3.40;3.10;;;14.50;99.90;;;;;;1889141;76;21056;-77
2021/08/30 00:29:26;;;;;;;4.12;3.75;;;14.60;99.90;;;;;;1889215;76;21044;-77
2021/08/30 00:31:52;;;;;;;3.47;3.27;;;14.60;99.90;;;;;;1889089;76;21130;-77
2021/08/30 00:34:18;;;;;;;3.95;3.60;;;14.60;99.90;;;;;;1889106;76;21115;-76
2021/08/30 00:36:44;;;;;;;3.65;3.35;;;14.60;99.90;;;;;;1889084;75;21146;-76
2021/08/30 00:39:10;;;;;;;4.35;3.95;;;14.70;99.90;;;;;;1889121;76;21130;-77
2021/08/30 00:41:37;;;;;;;4.00;3.70;;;14.70;99.90;;;;;;1889167;75;21068;-76
2021/08/30 00:44:03;;;;;;;4.28;3.98;;;14.70;99.90;;;;;;1889199;76;21067;-77
2021/08/30 00:46:29;;;;;;;4.28;3.95;;;14.70;99.90;;;;;;1889091;76;21056;-76
2021/08/30 00:48:55;;;;;;;3.98;3.67;;;14.70;99.90;;;;;;1889212;76;21084;-76
2021/08/30 00:51:21;;;;;;;4.65;4.25;;;14.70;99.90;;;;;;1889042;76;21080;-76
2021/08/30 00:53:47;;;;;;;4.72;4.37;;;14.70;99.90;;;;;;1889245;75;21614;-77
2021/08/30 00:56:13;;;;;;;4.40;4.08;;;14.70;99.90;;;;;;1889082;76;21488;-77
2021/08/30 00:58:39;;;;;;;4.87;4.47;;;14.70;99.90;;;;;;1889294;76;21635;-77
2021/08/30 01:01:06;;;;;;;4.80;4.42;;;14.70;99.90;;;;;;1889238;76;21494;-76
2021/08/30 01:03:32;;;;;;;5.30;4.90;;;14.70;99.90;;;;;;1889119;76;21625;-76
2021/08/30 01:05:58;;;;;;;5.20;4.80;;;14.70;99.90;;;;;;1889133;76;21385;-76
2021/08/30 01:08:24;;;;;;;5.83;5.22;;;14.70;99.90;;;;;;1907452;75;21045;-76
2021/08/30 01:10:50;;;;;;;5.50;5.00;;;14.70;99.90;;;;;;1890271;75;21075;-77
2021/08/30 01:13:16;;;;;;;5.15;4.65;;;14.70;99.90;;;;;;1889407;75;21146;-76
2021/08/30 01:15:47;;;;;;;5.55;5.10;;;14.70;99.90;;;;;;1889059;74;21076;-76
2021/08/30 01:18:10;;;;;;;6.03;5.53;;;14.70;99.90;;;;;;1888307;75;21068;-73
2021/08/30 01:20:37;;;;;;;6.42;5.83;;;14.70;99.90;;;;;;1889177;75;21049;-74
2021/08/30 01:23:03;;;;;;;6.50;5.80;;;14.60;99.90;;;;;;1889129;76;21072;-74
2021/08/30 01:25:29;;;;;;;6.50;5.92;;;14.60;99.90;;;;;;1889085;76;21123;-76
2021/08/30 01:27:55;;;;;;;6.65;5.95;;;14.70;99.90;;;;;;1889173;76;21064;-75
2021/08/30 01:30:21;;;;;;;7.10;6.33;;;14.60;99.90;;;;;;1889201;76;21171;-76
2021/08/30 01:32:47;;;;;;;6.90;6.03;;;14.70;99.90;;;;;;1889231;76;21072;-77
2021/08/30 01:35:13;;;;;;;6.03;5.53;;;14.70;99.90;;;;;;1889186;76;21076;-76
2021/08/30 01:37:39;;;;;;;6.37;5.80;;;14.70;99.90;;;;;;1889236;76;21097;-77
2021/08/30 01:40:06;;;;;;;7.10;6.53;;;14.70;99.90;;;;;;1889101;75;21070;-76
2021/08/30 01:42:32;;;;;;;6.60;6.05;;;14.70;99.90;;;;;;1889226;76;21430;-77
2021/08/30 01:44:58;;;;;;;6.42;5.85;;;14.70;99.90;;;;;;1889102;76;21591;-77
2021/08/30 01:47:24;;;;;;;6.42;5.92;;;14.70;99.90;;;;;;1889100;75;21133;-77
2021/08/30 01:50:00;;;;;;;6.25;5.75;;;14.70;99.90;;;;;;1889049;76;21068;-77
2021/08/30 01:52:18;;;;;;;9.08;6.03;;;14.70;99.90;;;;;;1888250;75;21209;-77
2021/08/30 01:54:44;;;;;;;5.87;5.47;;;14.80;99.90;;;;;;1889091;75;21456;-77
2021/08/30 01:57:13;;;;;;;5.87;5.42;;;14.70;99.90;;;;;;1889151;75;21079;-77
2021/08/30 02:02:22;;;;;;;5.80;5.40;;;14.80;99.90;;;;;;1889046;76;21468;-77
2021/08/30 02:04:48;;;;;;;6.25;5.75;;;14.80;99.90;;;;;;1889061;76;21507;-76
2021/08/30 02:07:14;;;;;;;5.65;5.15;;;14.70;99.90;;;;;;1889098;76;21569;-77
2021/08/30 02:09:41;;;;;;;5.90;5.28;;;14.70;99.90;;;;;;1889094;76;21456;-77
2021/08/30 02:12:07;;;;;;;5.58;5.15;;;14.80;99.90;;;;;;1889068;76;21511;-77
2021/08/30 02:14:33;;;;;;;5.50;5.05;;;14.80;99.90;;;;;;1889262;76;21580;-76
2021/08/30 02:16:59;;;;;;;5.08;4.67;;;14.80;99.90;;;;;;1889012;76;21596;-77
2021/08/30 02:19:25;;;;;;;5.05;4.65;;;14.70;99.90;;;;;;1889064;76;21068;-77
2021/08/30 02:21:51;;;;;;;6.03;5.50;;;14.70;99.90;;;;;;1889081;76;21056;-76
2021/08/30 02:24:17;;;;;;;5.60;5.20;;;14.70;99.90;;;;;;1889047;76;21037;-77
2021/08/30 02:26:43;;;;;;;5.50;5.00;;;14.70;99.90;;;;;;1889067;76;21060;-77
2021/08/30 02:29:10;;;;;;;5.22;4.83;;;14.70;99.90;;;;;;1889097;76;21138;-75
2021/08/30 02:31:36;;;;;;;7.72;5.28;;;14.70;99.90;;;;;;1889037;76;21064;-77
2021/08/30 02:34:02;;;;;;;5.30;4.90;;;14.80;99.90;;;;;;1889058;76;21128;-77
2021/08/30 02:36:28;;;;;;;5.30;4.90;;;14.70;99.90;;;;;;1889028;75;21142;-76
2021/08/30 02:38:54;;;;;;;8.63;5.85;;;14.70;99.90;;;;;;1889268;76;21159;-76
2021/08/30 02:41:20;;;;;;;5.47;5.03;;;14.70;99.90;;;;;;1889356;76;21102;-76
2021/08/30 02:43:48;;;;;;;5.58;4.80;;;14.70;99.90;;;;;;1889440;76;21067;-76
2021/08/30 02:46:14;;;;;;;5.97;5.47;;;14.60;99.90;;;;;;1889407;75;21045;-77
2021/08/30 02:48:40;;;;;;;6.00;5.40;;;14.60;99.90;;;;;;1889447;76;21159;-78
2021/08/30 02:51:06;;;;;;;5.90;5.40;;;14.60;99.90;;;;;;1889436;76;21093;-77
2021/08/30 02:53:32;;;;;;;10.10;5.92;;;14.60;99.90;;;;;;1889439;76;21193;-77
2021/08/30 02:55:58;;;;;;;6.72;5.78;;;14.60;99.90;;;;;;1889398;76;21069;-77
2021/08/30 02:58:24;;;;;;;7.87;5.45;;;14.50;99.90;;;;;;1889410;76;21047;-78
2021/08/30 03:00:50;;;;;;;5.50;5.08;;;14.60;99.90;;;;;;1889425;76;21170;-77
2021/08/30 03:03:17;;;;;;;5.85;5.35;;;14.60;99.90;;;;;;1889450;76;21650;-77
2021/08/30 03:05:43;;;;;;;6.67;5.65;;;14.50;99.90;;;;;;1889423;76;21110;-77
2021/08/30 03:08:09;;;;;;;7.22;5.60;;;14.50;99.90;;;;;;1889535;76;21141;-77
2021/08/30 03:10:35;;;;;;;5.90;5.40;;;14.50;99.90;;;;;;1889322;76;21067;-76
2021/08/30 03:13:01;;;;;;;6.47;5.72;;;14.50;99.90;;;;;;1889519;76;21100;-76
2021/08/30 03:15:27;;;;;;;6.00;5.42;;;14.50;99.90;;;;;;1889575;76;21162;-75
2021/08/30 03:17:53;;;;;;;5.62;5.12;;;14.50;99.90;;;;;;1889597;76;21064;-75
2021/08/30 03:20:19;;;;;;;7.33;5.22;;;14.50;99.90;;;;;;1889692;76;21067;-75
2021/08/30 03:22:46;;;;;;;7.28;4.97;;;14.50;99.90;;;;;;1889610;75;21068;-75
2021/08/30 03:25:14;;;;;;;4.80;4.40;;;14.40;99.90;;;;;;1889588;76;21067;-76
2021/08/30 03:27:39;;;;;;;4.55;4.25;;;14.50;99.90;;;;;;1889218;75;21093;-77
2021/08/30 03:30:07;;;;;;;5.28;3.92;;;14.50;99.90;;;;;;1889510;76;21097;-77
2021/08/30 03:32:34;;;;;;;4.08;3.77;;;14.40;99.90;;;;;;1889506;75;21623;-77
2021/08/30 03:35:00;;;;;;;4.72;4.00;;;14.40;99.90;;;;;;1889499;75;21164;-77
2021/08/30 03:37:26;;;;;;;3.60;3.30;;;14.40;99.90;;;;;;1889595;76;21068;-78
2021/08/30 03:39:52;;;;;;;3.58;3.27;;;14.50;99.90;;;;;;1889598;76;21067;-77
2021/08/30 03:42:18;;;;;;;3.80;3.50;;;14.40;99.90;;;;;;1889587;76;21095;-77
2021/08/30 03:44:44;;;;;;;3.47;3.17;;;14.40;99.90;;;;;;1889376;76;21069;-77
2021/08/30 03:47:10;;;;;;;3.47;3.20;;;14.40;99.90;;;;;;1889365;76;21090;-77
2021/08/30 03:49:37;;;;;;;3.90;3.60;;;14.50;99.90;;;;;;1890954;75;21157;-77
2021/08/30 03:52:03;;;;;;;3.67;3.30;;;14.40;99.90;;;;;;1889195;76;21072;-77
2021/08/30 03:54:29;;;;;;;4.45;4.05;;;14.40;99.90;;;;;;1889158;76;21134;-77
2021/08/30 03:56:55;;;;;;;4.17;3.87;;;14.40;99.90;;;;;;1889116;76;21096;-78
2021/08/30 03:59:21;;;;;;;4.50;4.10;;;14.50;99.90;;;;;;1889204;76;21053;-78
2021/08/30 04:01:47;;;;;;;4.55;4.10;;;14.50;99.90;;;;;;1889157;76;21083;-77
2021/08/30 04:04:19;;;;;;;4.95;4.55;;;14.50;99.90;;;;;;1889267;76;21085;-77
2021/08/30 04:06:44;;;;;;;;;;;14.50;99.90;;;;;;1891978;75;21482;-77
2021/08/30 04:09:13;;;;;;;6.65;5.20;;;14.50;99.90;;;;;;1889076;76;20358;-77
2021/08/30 04:11:38;;;;;;;6.25;4.87;;;14.50;99.90;;;;;;1889027;75;21101;-77
2021/08/30 04:14:04;;;;;;;5.40;5.00;;;14.50;99.90;;;;;;1889375;75;21149;-77
2021/08/30 04:16:30;;;;;;;5.72;5.22;;;14.50;99.90;;;;;;1889056;75;21092;-76
2021/08/30 04:18:57;;;;;;;6.37;5.28;;;14.50;99.90;;;;;;1889277;76;21119;-77
2021/08/30 04:21:23;;;;;;;5.70;5.20;;;14.60;99.90;;;;;;1889104;76;21155;-77
2021/08/30 04:23:49;;;;;;;6.08;5.50;;;14.50;99.90;;;;;;1889284;76;21115;-77
2021/08/30 04:26:15;;;;;;;6.70;5.65;;;14.50;99.90;;;;;;1889095;76;21157;-77
2021/08/30 04:28:41;;;;;;;5.75;4.97;;;14.50;99.90;;;;;;1889263;76;21080;-77
2021/08/30 04:31:07;;;;;;;5.90;5.40;;;14.50;99.90;;;;;;1889080;76;21049;-77
2021/08/30 04:33:34;;;;;;;6.03;5.40;;;14.50;99.90;;;;;;1889262;75;21084;-77
2021/08/30 04:36:00;;;;;;;6.45;5.87;;;14.50;99.90;;;;;;1889065;76;21107;-77
2021/08/30 04:38:26;;;;;;;6.15;5.65;;;14.60;99.90;;;;;;1889272;76;21121;-77
2021/08/30 04:40:53;;;;;;;6.72;6.12;;;14.50;99.90;;;;;;1889130;76;21478;-77
2021/08/30 04:43:19;;;;;;;6.87;6.15;;;14.50;99.90;;;;;;1889198;75;21936;-76
2021/08/30 04:45:45;;;;;;;6.65;5.85;;;14.50;99.90;;;;;;1889191;76;21525;-75
2021/08/30 04:48:11;;;;;;;6.75;6.15;;;14.50;99.90;;;;;;1889178;76;21515;-74
2021/08/30 04:50:37;;;;;;;8.83;6.08;;;14.50;99.90;;;;;;1889175;76;21600;-75
2021/08/30 04:53:03;;;;;;;6.22;5.58;;;14.50;99.90;;;;;;1889177;76;21053;-75
2021/08/30 04:55:29;;;;;;;6.10;5.50;;;14.50;99.90;;;;;;1889234;76;21139;-76
2021/08/30 04:57:56;;;;;;;6.00;5.40;;;14.50;99.90;;;;;;1889225;75;21076;-75
2021/08/30 05:00:22;;;;;;;7.05;6.20;;;14.50;99.90;;;;;;1889270;75;21146;-76
2021/08/30 05:02:48;;;;;;;6.05;5.55;;;14.50;99.90;;;;;;1889025;76;21049;-76
2021/08/30 05:05:14;;;;;;;6.42;5.78;;;14.50;99.90;;;;;;1889256;76;21166;-76
2021/08/30 05:07:40;;;;;;;6.40;5.83;;;14.60;99.90;;;;;;1889087;76;21149;-76
2021/08/30 05:10:06;;;;;;;6.92;6.33;;;14.60;99.90;;;;;;1889269;76;21088;-76
2021/08/30 05:12:33;;;;;;;7.40;6.67;;;14.60;99.90;;;;;;1889096;76;21016;-76
2021/08/30 05:14:59;;;;;;;7.50;6.65;;;14.60;99.90;;;;;;1889273;76;21112;-76
2021/08/30 05:17:25;;;;;;;7.03;6.42;;;14.60;99.90;;;;;;1889081;75;21088;-76
2021/08/30 05:19:51;;;;;;;6.97;6.37;;;14.60;99.90;;;;;;1889231;76;21137;-77
2021/08/30 05:22:17;;;;;;;8.43;6.45;;;14.60;99.90;;;;;;1889118;76;21149;-77
2021/08/30 05:24:43;;;;;;;8.25;7.42;;;14.60;99.90;;;;;;1889175;76;21041;-77
2021/08/30 05:27:10;;;;;;;7.25;6.50;;;14.60;99.90;;;;;;1889224;76;21152;-77
2021/08/30 05:29:36;;;;;;;6.87;5.92;;;14.60;99.90;;;;;;1889175;76;21076;-77
2021/08/30 05:32:02;;;;;;;7.42;5.67;;;14.60;99.90;;;;;;1889333;76;21084;-77
2021/08/30 05:34:28;;;;;;;6.50;5.72;;;14.60;99.90;;;;;;1889326;76;21054;-76
2021/08/30 05:36:54;;;;;;;7.72;6.47;;;14.70;99.90;;;;;;1889150;76;21174;-76
2021/08/30 05:39:20;;;;;;;7.55;6.78;;;14.60;99.90;;;;;;1889181;76;21076;-76
2021/08/30 05:41:46;;;;;;;6.37;5.47;;;14.70;99.90;;;;;;1889130;75;21084;-76
2021/08/30 05:44:12;;;;;;;6.72;6.10;;;14.70;99.90;;;;;;1889305;76;21044;-76
2021/08/30 05:46:39;;;;;;;8.73;6.83;;;14.70;99.90;;;;;;1889189;76;21088;-76
2021/08/30 05:49:05;;;;;;;7.90;6.33;;;14.80;99.90;;;;;;1889168;76;21056;-76
2021/08/30 05:51:31;;;;;;;10.00;6.45;;;14.80;99.90;;;;;;1889153;76;21087;-77
2021/08/30 05:53:57;;;;;;;11.15;7.00;;;14.80;99.90;;;;;;1889228;76;21518;-77
2021/08/30 05:56:23;;;;;;;7.25;6.55;;;14.80;99.90;;;;;;1889009;75;21523;-77
2021/08/30 05:58:49;;;;;;;7.58;6.80;;;14.80;99.90;;;;;;1889057;76;21138;-77
2021/08/30 06:01:16;;;;;;;7.62;6.92;;;14.90;99.90;;;;;;1889281;76;21240;-76
2021/08/30 06:03:42;;;;;;;7.37;6.67;;;14.90;99.90;;;;;;1890378;75;21048;-76
2021/08/30 06:06:08;;;;;;;8.15;7.45;;;14.90;99.90;;;;;;1900883;75;21072;-76
2021/08/30 06:08:34;;;;;;;7.67;6.97;;;14.90;99.90;;;;;;1894905;75;21080;-76
2021/08/30 06:11:00;;;;;;;7.33;6.62;;;14.90;99.90;;;;;;1889333;76;21100;-76
2021/08/30 06:13:26;;;;;;;7.83;7.03;;;14.90;99.90;;;;;;1889150;76;21562;-76
2021/08/30 06:15:53;;;;;;;8.20;7.08;;;14.90;99.90;;;;;;1889010;75;21469;-77
2021/08/30 06:18:19;;;;;;;7.78;6.92;;;14.90;99.90;;;;;;1889102;76;21555;-77
2021/08/30 06:20:45;;;;;;;8.48;7.15;;;14.90;99.90;;;;;;1889072;76;21071;-76
2021/08/30 06:23:11;;;;;;;7.95;7.25;;;15.00;99.90;;;;;;1889068;76;21123;-76
2021/08/30 06:25:37;;;;;;;8.55;7.05;;;15.00;99.90;;;;;;1889266;75;21048;-76
2021/08/30 06:28:03;;;;;;;8.68;7.78;;;15.10;99.90;;;;;;1889097;76;21080;-76
2021/08/30 06:30:30;;;;;;;11.78;7.58;;;15.20;99.90;;;;;;1889086;76;21282;-76
2021/08/30 06:32:57;;;;;;;6.53;6.03;;;15.30;99.90;;;;;;1889109;75;21153;-76
2021/08/30 06:35:23;;;;;;;10.58;7.20;;;15.40;99.90;;;;;;1889184;76;21146;-76
2021/08/30 06:37:49;;;;;;;7.30;6.45;;;15.40;99.90;;;;;;1889183;76;21230;-76
2021/08/30 06:40:16;;;;;;;6.85;6.25;;;15.50;99.90;;;;;;1889215;75;21048;-76
2021/08/30 06:42:42;;;;;;;9.73;7.17;;;15.50;99.90;;;;;;1889064;76;21078;-76
2021/08/30 06:45:09;;;;;;;8.18;7.33;;;15.50;99.90;;;;;;1889083;75;21080;-76
2021/08/30 06:47:35;;;;;;;7.87;6.97;;;15.40;99.90;;;;;;1889078;76;21084;-76
2021/08/30 06:50:02;;;;;;;7.05;6.35;;;15.40;99.90;;;;;;1889176;76;21079;-76
2021/08/30 06:52:28;;;;;;;7.50;6.37;;;15.40;99.90;;;;;;1888994;76;21045;-76
2021/08/30 06:54:54;;;;;;;8.68;7.03;;;15.40;99.90;;;;;;1889190;76;21075;-76
2021/08/30 06:57:20;;;;;;;7.45;6.05;;;15.40;99.90;;;;;;1888953;76;21123;-75
2021/08/30 06:59:46;;;;;;;12.33;6.45;;;15.40;99.90;;;;;;1889063;76;21130;-76
2021/08/30 07:02:12;;;;;;;6.87;6.20;;;15.50;99.90;;;;;;1889019;76;21045;-76
2021/08/30 07:04:38;;;;;;;6.70;6.10;;;15.50;99.90;;;;;;1889137;76;21138;-76
2021/08/30 07:07:05;;;;;;;7.78;6.97;;;15.60;99.90;;;;;;1889334;76;21076;-75
2021/08/30 07:09:31;;;;;;;6.67;6.08;;;15.60;99.90;;;;;;1889064;76;21130;-75
2021/08/30 07:11:57;;;;;;;9.40;6.47;;;15.70;99.90;;;;;;1889195;76;21049;-76
2021/08/30 07:14:23;;;;;;;6.67;5.97;;;15.80;99.90;;;;;;1889200;76;21064;-75
2021/08/30 07:16:49;;;;;;;12.05;6.60;;;15.90;99.90;;;;;;1889162;76;21142;-75
2021/08/30 07:19:15;;;;;;;6.70;6.00;;;15.90;99.90;;;;;;1889071;75;21521;-75
2021/08/30 07:21:41;;;;;;;7.40;6.08;;;15.90;99.90;;;;;;1889057;76;21135;-76
2021/08/30 07:24:08;;;;;;;7.83;6.28;;;15.90;99.90;;;;;;1889037;76;21048;-76
2021/08/30 07:26:34;;;;;;;7.83;6.35;;;15.80;99.90;;;;;;1889188;76;21072;-76
2021/08/30 07:29:00;;;;;;;7.62;6.37;;;15.90;99.90;;;;;;1889159;76;21185;-76
2021/08/30 07:31:26;;;;;;;5.83;5.22;;;15.80;99.90;;;;;;1889137;76;21138;-76
2021/08/30 07:33:53;;;;;;;6.33;5.50;;;15.90;99.90;;;;;;1889272;76;21048;-75
2021/08/30 07:36:20;;;;;;;7.72;6.50;;;15.90;99.90;;;;;;1889167;75;21473;-76
2021/08/30 07:38:46;;;;;;;7.97;5.95;;;15.90;99.90;;;;;;1889171;76;21057;-76
2021/08/30 07:41:12;;;;;;;11.18;6.05;;;16.00;99.90;;;;;;1889095;76;21072;-76
2021/08/30 07:43:38;;;;;;;7.15;6.45;;;16.00;99.90;;;;;;1889306;76;21100;-76
2021/08/30 07:46:05;;;;;;;8.03;5.83;;;16.10;99.90;;;;;;1888996;76;21045;-76
2021/08/30 07:48:31;;;;;;;5.95;5.35;;;16.10;99.90;;;;;;1889236;76;21076;-76
2021/08/30 07:50:57;;;;;;;6.45;5.85;;;16.10;99.90;;;;;;1889141;76;21072;-76
2021/08/30 07:53:26;;;;;;;6.35;5.70;;;16.10;99.90;;;;;;1889292;76;21052;-76
2021/08/30 07:55:51;;;;;;;6.22;5.37;;;16.00;99.90;;;;;;1888931;75;21157;-74
2021/08/30 07:58:17;;;;;;;6.85;5.85;;;16.10;99.90;;;;;;1889277;75;21076;-75
2021/08/30 08:00:43;;;;;;;7.25;5.47;;;16.10;99.90;;;;;;1889388;75;21087;-75
2021/08/30 08:03:09;;;;;;;6.75;5.40;;;16.20;99.90;;;;;;1889411;76;21145;-75
2021/08/30 08:05:35;;;;;;;6.00;5.30;;;16.20;99.90;;;;;;1889583;76;21065;-74
2021/08/30 08:08:04;;;;;;;5.83;5.20;;;16.20;99.90;;;;;;1889355;76;21141;-75
2021/08/30 08:10:29;;;;;;;7.03;4.80;;;16.10;99.90;;;;;;1889419;75;21136;-75
2021/08/30 08:12:55;;;;;;;6.90;4.55;;;16.10;99.90;;;;;;1889391;76;21133;-75
2021/08/30 08:15:21;;;;;;;4.87;4.45;;;16.10;99.90;;;;;;1890841;75;21049;-76
2021/08/30 08:17:47;;;;;;;7.62;4.75;;;16.10;99.90;;;;;;1889266;76;21139;-74
2021/08/30 08:20:14;;;;;;;5.40;4.55;;;16.20;99.90;;;;;;1889414;76;21064;-75
2021/08/30 08:22:40;;;;;;;4.40;4.00;;;16.20;99.90;;;;;;1889258;76;21188;-75
2021/08/30 08:25:07;;;;;;;9.10;4.20;;;16.20;99.90;;;;;;1889429;76;21449;-75
2021/08/30 08:27:33;;;;;;;4.78;4.37;;;16.20;99.90;;;;;;1889503;75;21052;-75
2021/08/30 08:29:59;;;;;;;4.72;4.33;;;16.20;99.90;;;;;;1889641;76;21064;-75
2021/08/30 08:32:25;;;;;;;5.10;4.60;;;16.20;99.90;;;;;;1889717;76;21093;-76
2021/08/30 08:34:51;;;;;;;5.00;4.50;;;16.20;99.90;;;;;;1889630;76;21068;-77
2021/08/30 08:37:17;;;;;;;4.62;4.28;;;16.10;99.90;;;;;;1889587;76;21045;-77
2021/08/30 08:39:44;;;;;;;4.65;4.10;;;16.20;99.90;;;;;;1877364;76;21118;-77
2021/08/30 08:42:10;;;;;;;4.37;3.98;;;16.20;99.90;;;;;;1889758;76;21616;-76
2021/08/30 08:44:36;;;;;;;4.78;4.17;;;16.20;99.90;;;;;;1889818;76;21492;-76
2021/08/30 08:47:02;;;;;;;4.28;3.83;;;16.10;99.90;;;;;;1889457;76;21064;-76
2021/08/30 08:49:28;;;;;;;5.22;3.83;;;16.30;99.90;;;;;;1889278;76;21009;-77
2021/08/30 08:51:54;;;;;;;3.83;3.42;;;16.40;99.90;;;;;;1889422;75;21056;-77
2021/08/30 08:54:20;;;;;;;6.22;3.40;;;16.50;99.90;;;;;;1889279;76;21072;-76
2021/08/30 08:56:47;;;;;;;3.52;3.10;;;16.60;99.90;;;;;;1889411;76;21068;-76
2021/08/30 08:59:13;;;;;;;3.45;3.22;;;16.50;99.90;;;;;;1889432;76;21037;-75
2021/08/30 09:01:41;;;;;;;4.62;3.62;;;16.40;99.90;;;;;;1889476;76;21174;-75
2021/08/30 09:04:07;;;;;;;3.35;3.08;;;16.30;99.90;;;;;;1889258;76;21142;-77
2021/08/30 09:06:43;;;;;;;3.22;2.95;;;16.20;99.90;;;;;;1889108;76;21063;-77
2021/08/30 09:09:10;;;;;;;3.22;3.00;;;16.30;99.90;;;;;;1889113;76;21075;-77
2021/08/30 09:11:36;;;;;;;4.62;3.75;;;16.50;99.90;;;;;;1889051;76;21530;-76
2021/08/30 09:14:03;;;;;;;3.58;3.27;;;16.70;99.90;;;;;;1888965;76;21041;-76
2021/08/30 09:16:29;;;;;;;3.42;3.05;;;16.80;99.90;;;;;;1889242;76;21039;-76
2021/08/30 09:18:55;;;;;;;3.90;3.50;;;17.00;99.90;;;;;;1889092;76;21064;-76
2021/08/30 09:21:21;;;;;;;6.30;3.90;;;16.90;99.90;;;;;;1889075;76;21068;-76
2021/08/30 09:23:47;;;;;;;3.67;3.37;;;17.00;99.90;;;;;;1889056;76;21072;-76
2021/08/30 09:26:13;;;;;;;5.90;4.58;;;17.00;99.90;;;;;;1889032;76;21562;-76
2021/08/30 09:28:39;;;;;;;4.35;3.95;;;17.00;99.90;;;;;;1889095;76;21068;-76
2021/08/30 09:31:06;;;;;;;5.28;4.60;;;17.00;99.90;;;;;;1889197;75;21068;-75
2021/08/30 09:33:32;;;;;;;5.45;4.75;;;17.00;99.90;;;;;;1889180;76;21097;-76
2021/08/30 09:35:58;;;;;;;5.30;4.80;;;17.10;99.90;;;;;;1889166;76;21063;-75
2021/08/30 09:38:24;;;;;;;5.65;5.08;;;17.30;99.90;;;;;;1889130;76;21072;-76
2021/08/30 09:40:50;;;;;;;7.20;4.65;;;17.50;99.90;;;;;;1889073;75;21176;-75
2021/08/30 09:43:16;;;;;;;5.75;5.20;;;17.60;99.90;;;;;;1889078;75;21064;-75
2021/08/30 09:45:42;;;;;;;6.05;4.78;;;17.60;99.90;;;;;;1889092;76;21073;-75
2021/08/30 09:48:12;;;;;;;5.47;4.60;;;17.70;99.90;;;;;;1889093;75;21076;-75
2021/08/30 09:50:38;;;;;;;4.95;4.55;;;17.80;99.90;;;;;;1888863;75;21141;-74
2021/08/30 09:53:04;;;;;;;6.95;5.08;;;17.80;99.90;;;;;;1889005;76;21087;-75
2021/08/30 09:55:30;;;;;;;5.47;4.87;;;17.80;99.90;;;;;;1889192;76;21189;-72
2021/08/30 09:57:57;;;;;;;9.45;5.20;;;17.80;99.90;;;;;;1889085;75;21074;-75
2021/08/30 10:00:23;;;;;;;4.95;4.47;;;17.70;99.90;;;;;;1889276;76;21087;-76
2021/08/30 10:02:50;;;;;;;6.92;5.33;;;17.70;99.90;;;;;;1889177;76;21488;-76
2021/08/30 10:05:16;;;;;;;6.95;5.37;;;17.40;99.90;;;;;;1889084;76;21072;-77
2021/08/30 10:07:42;;;;;;;5.45;4.95;;;17.30;99.90;;;;;;1889069;76;21084;-77
2021/08/30 10:10:08;;;;;;;6.35;5.08;;;17.10;99.90;;;;;;1890102;75;21088;-78
2021/08/30 10:12:38;;;;;;;6.50;5.72;;;17.00;99.90;;;;;;1889841;76;21130;-76
2021/08/30 10:15:04;;;;;;;7.72;5.05;;;17.00;99.90;;;;;;1890737;75;21077;-76
2021/08/30 10:17:30;;;;;;;5.80;5.22;;;17.00;99.90;;;;;;1889050;76;21080;-76
2021/08/30 10:19:56;;;;;;;7.70;5.58;;;17.10;99.90;;;;;;1889041;76;21080;-76
2021/08/30 10:22:23;;;;;;;7.42;5.28;;;17.30;99.90;;;;;;1889059;76;21133;-76
2021/08/30 10:24:49;;;;;;;5.72;4.95;;;17.60;99.90;;;;;;1890416;75;21083;-76
2021/08/30 10:27:15;;;;;;;6.33;5.72;;;17.60;99.90;;;;;;1889315;75;21037;-76
2021/08/30 10:29:41;;;;;;;5.70;5.20;;;17.70;99.90;;;;;;1889068;76;21137;-76
2021/08/30 10:32:09;;;;;;;5.80;5.22;;;17.90;99.90;;;;;;1889115;76;21075;-77
2021/08/30 10:34:35;;;;;;;5.10;4.60;;;18.00;99.90;;;;;;1889056;76;21071;-76
2021/08/30 10:37:01;;;;;;;6.97;5.08;;;17.90;99.90;;;;;;1889067;76;21130;-77
2021/08/30 10:39:28;;;;;;;4.90;4.50;;;17.80;99.90;;;;;;1888941;76;21072;-76
2021/08/30 10:41:54;;;;;;;5.28;4.67;;;17.80;99.90;;;;;;1889107;75;21076;-77
2021/08/30 10:44:20;;;;;;;4.40;4.03;;;17.90;99.90;;;;;;1889096;76;21173;-77
2021/08/30 10:46:49;;;;;;;5.33;4.20;;;17.90;99.90;;;;;;1888890;76;21146;-77
2021/08/30 10:49:14;;;;;;;3.80;3.30;;;18.10;99.90;;;;;;1889079;75;21097;-77
2021/08/30 10:51:40;;;;;;;3.70;3.40;;;18.30;99.90;;;;;;1892901;75;21212;-77
2021/08/30 10:54:06;;;;;;;4.15;3.35;;;18.30;99.90;;;;;;1895407;75;21088;-76
2021/08/30 10:56:32;;;;;;;4.28;3.42;;;18.20;99.90;;;;;;1888964;76;21084;-76
2021/08/30 10:59:06;;;;;;;11.55;3.90;;;18.00;99.90;;;;;;1889174;76;21084;-76
2021/08/30 11:01:26;;;;;;;4.00;3.60;;;17.70;99.90;;;;;;1888487;75;21116;-76
2021/08/30 11:03:52;;;;;;;7.50;3.95;;;17.80;99.90;;;;;;1889262;76;21137;-76
2021/08/30 11:06:19;;;;;;;6.50;4.53;;;17.80;99.90;;;;;;1889337;76;21049;-76
2021/08/30 11:08:45;;;;;;;4.12;3.72;;;17.90;99.90;;;;;;1889340;75;21203;-76
2021/08/30 11:11:11;;;;;;;4.53;4.12;;;18.10;99.90;;;;;;1889368;76;21241;-77
2021/08/30 11:13:38;;;;;;;5.87;4.50;;;18.10;99.90;;;;;;1888994;76;21161;-77
2021/08/30 11:16:04;;;;;;;7.20;4.42;;;18.30;99.90;;;;;;1889115;76;21085;-77
2021/08/30 11:18:31;;;;;;;4.40;4.00;;;18.40;99.90;;;;;;1889198;76;21100;-76
2021/08/30 11:20:57;;;;;;;5.62;4.05;;;18.40;99.90;;;;;;1889252;76;21073;-76
2021/08/30 11:23:23;;;;;;;4.95;4.28;;;18.40;99.90;;;;;;1889299;76;21112;-76
2021/08/30 11:25:49;;;;;;;4.78;4.28;;;18.10;99.90;;;;;;1889007;76;21072;-76
2021/08/30 11:28:15;;;;;;;10.68;4.78;;;18.20;99.90;;;;;;1889068;75;21068;-77
2021/08/30 11:30:41;;;;;;;4.20;3.80;;;18.50;99.90;;;;;;1889158;75;21076;-76
2021/08/30 11:33:07;;;;;;;4.67;3.58;;;18.90;99.90;;;;;;1889182;76;21079;-76
2021/08/30 11:35:33;;;;;;;4.97;4.08;;;19.40;99.90;;;;;;1888993;76;21089;-75
2021/08/30 11:38:00;;;;;;;4.83;3.83;;;19.60;99.90;;;;;;1889166;76;21141;-74
2021/08/30 11:40:26;;;;;;;7.87;4.12;;;19.50;99.90;;;;;;1889131;76;21141;-74
2021/08/30 11:42:52;;;;;;;5.72;4.58;;;19.40;99.90;;;;;;1889273;76;21079;-73
2021/08/30 11:45:20;;;;;;;4.40;3.80;;;19.40;99.90;;;;;;1889095;76;21068;-76
2021/08/30 11:47:47;;;;;;;4.65;4.12;;;19.40;99.90;;;;;;1889164;75;21493;-76
2021/08/30 11:50:13;;;;;;;7.65;4.42;;;19.20;99.90;;;;;;1889062;76;21159;-76
2021/08/30 11:52:39;;;;;;;5.53;4.28;;;19.20;99.90;;;;;;1889245;75;21134;-76
2021/08/30 11:55:06;;;;;;;5.40;4.90;;;19.00;99.90;;;;;;1889022;76;21134;-75
2021/08/30 11:57:32;;;;;;;6.87;4.85;;;18.80;99.90;;;;;;1889261;76;21186;-76
2021/08/30 11:59:58;;;;;;;4.72;4.33;;;18.30;99.90;;;;;;1888907;76;21075;-76
2021/08/30 12:02:24;;;;;;;6.10;5.03;;;18.20;99.90;;;;;;1889183;75;21087;-76
2021/08/30 12:04:50;;;;;;;6.33;5.25;;;18.20;99.90;;;;;;1889005;76;21153;-76
2021/08/30 12:07:16;;;;;;;5.10;4.70;;;18.30;99.90;;;;;;1889079;76;21060;-75
2021/08/30 12:09:42;;;;;;;5.10;4.60;;;18.60;99.90;;;;;;1888933;76;21467;-76
2021/08/30 12:12:09;;;;;;;8.35;4.78;;;18.90;99.90;;;;;;1889182;76;21074;-76
2021/08/30 12:14:35;;;;;;;6.97;4.50;;;19.00;99.90;;;;;;1889106;76;21146;-76
2021/08/30 12:17:01;;;;;;;5.08;4.67;;;19.20;99.90;;;;;;1889108;76;21204;-77
2021/08/30 12:19:28;;;;;;;5.75;5.00;;;19.00;99.90;;;;;;1889096;76;21207;-76
2021/08/30 12:21:56;;;;;;;5.10;4.60;;;18.70;99.90;;;;;;1889245;76;21183;-75
2021/08/30 12:24:22;;;;;;;5.75;5.15;;;18.40;99.90;;;;;;1889070;75;21502;-76
2021/08/30 12:26:48;;;;;;;12.73;5.65;;;18.30;99.90;;;;;;1889097;76;21436;-76
2021/08/30 12:29:14;;;;;;;5.72;5.22;;;18.30;99.90;;;;;;1889090;76;21067;-76
2021/08/30 12:31:40;;;;;;;8.18;6.03;;;18.40;99.90;;;;;;1889073;76;21173;-76
2021/08/30 12:34:07;;;;;;;8.10;5.80;;;18.60;99.90;;;;;;1889232;76;21086;-76
2021/08/30 12:36:33;;;;;;;7.05;5.50;;;18.70;99.90;;;;;;1889080;76;21041;-76
2021/08/30 12:38:59;;;;;;;8.40;5.87;;;18.50;99.90;;;;;;1889075;76;21145;-76
2021/08/30 12:41:25;;;;;;;7.37;4.95;;;18.50;99.90;;;;;;1889220;76;21424;-76